sensor_id;sensor_type;location;lat;lon;timestamp;P1;durP1;ratioP1;P2;durP2;ratioP2
5042;SDS011;2540;50.928;6.856;2023-07-20T00:02:08;8.77;;;2.30;;
5042;SDS011;2540;50.928;6.856;2023-07-20T00:04:34;2.47;;;1.93;;
5042;SDS011;2540;50.928;6.856;2023-07-20T00:06:59;3.43;;;2.30;;
5042;SDS011;2540;50.928;6.856;2023-07-20T00:09:26;4.67;;;2.40;;
5042;SDS011;2540;50.928;6.856;2023-07-20T00:11:52;6.20;;;2.50;;
5042;SDS011;2540;50.928;6.856;2023-07-20T00:14:17;7.53;;;2.57;;
5042;SDS011;2540;50.928;6.856;2023-07-20T00:16:43;3.73;;;2.20;;
5042;SDS011;2540;50.928;6.856;2023-07-20T00:19:09;3.13;;;2.30;;
5042;SDS011;2540;50.928;6.856;2023-07-20T00:21:35;3.57;;;2.40;;
5042;SDS011;2540;50.928;6.856;2023-07-20T00:24:01;4.33;;;2.40;;
5042;SDS011;2540;50.928;6.856;2023-07-20T00:26:26;2.40;;;2.20;;
5042;SDS011;2540;50.928;6.856;2023-07-20T00:28:51;3.40;;;2.10;;
5042;SDS011;2540;50.928;6.856;2023-07-20T00:31:17;8.70;;;2.90;;
5042;SDS011;2540;50.928;6.856;2023-07-20T00:33:42;4.27;;;2.87;;
5042;SDS011;2540;50.928;6.856;2023-07-20T00:36:08;2.87;;;2.20;;
5042;SDS011;2540;50.928;6.856;2023-07-20T00:38:33;4.93;;;3.00;;
5042;SDS011;2540;50.928;6.856;2023-07-20T00:40:58;3.23;;;2.53;;
5042;SDS011;2540;50.928;6.856;2023-07-20T00:43:24;7.40;;;2.93;;
5042;SDS011;2540;50.928;6.856;2023-07-20T00:45:49;3.70;;;2.40;;
5042;SDS011;2540;50.928;6.856;2023-07-20T00:48:14;6.60;;;2.73;;
5042;SDS011;2540;50.928;6.856;2023-07-20T00:50:40;2.70;;;2.23;;
5042;SDS011;2540;50.928;6.856;2023-07-20T00:53:05;6.13;;;2.27;;
5042;SDS011;2540;50.928;6.856;2023-07-20T00:55:31;9.43;;;2.73;;
5042;SDS011;2540;50.928;6.856;2023-07-20T00:57:56;4.03;;;2.60;;
5042;SDS011;2540;50.928;6.856;2023-07-20T01:00:22;3.90;;;2.50;;
5042;SDS011;2540;50.928;6.856;2023-07-20T01:02:48;6.13;;;2.67;;
5042;SDS011;2540;50.928;6.856;2023-07-20T01:05:13;5.73;;;2.20;;
5042;SDS011;2540;50.928;6.856;2023-07-20T01:13:01;3.30;;;2.13;;
5042;SDS011;2540;50.928;6.856;2023-07-20T01:15:28;3.47;;;2.10;;
5042;SDS011;2540;50.928;6.856;2023-07-20T01:17:53;2.50;;;2.13;;
5042;SDS011;2540;50.928;6.856;2023-07-20T01:20:19;3.83;;;2.43;;
5042;SDS011;2540;50.928;6.856;2023-07-20T01:33:38;4.40;;;2.23;;
5042;SDS011;2540;50.928;6.856;2023-07-20T01:36:03;3.00;;;2.33;;
5042;SDS011;2540;50.928;6.856;2023-07-20T01:38:30;13.83;;;3.00;;
5042;SDS011;2540;50.928;6.856;2023-07-20T01:40:55;3.17;;;2.40;;
5042;SDS011;2540;50.928;6.856;2023-07-20T01:43:21;3.70;;;2.30;;
5042;SDS011;2540;50.928;6.856;2023-07-20T01:45:46;5.13;;;2.10;;
5042;SDS011;2540;50.928;6.856;2023-07-20T01:48:12;3.23;;;2.07;;
5042;SDS011;2540;50.928;6.856;2023-07-20T01:50:37;3.40;;;2.20;;
5042;SDS011;2540;50.928;6.856;2023-07-20T01:53:03;4.10;;;2.50;;
5042;SDS011;2540;50.928;6.856;2023-07-20T01:55:28;4.97;;;2.40;;
5042;SDS011;2540;50.928;6.856;2023-07-20T01:57:54;2.40;;;2.20;;
5042;SDS011;2540;50.928;6.856;2023-07-20T02:00:20;5.60;;;1.90;;
5042;SDS011;2540;50.928;6.856;2023-07-20T02:02:48;6.83;;;3.60;;
5042;SDS011;2540;50.928;6.856;2023-07-20T02:05:14;3.07;;;2.33;;
5042;SDS011;2540;50.928;6.856;2023-07-20T02:07:39;5.93;;;2.73;;
5042;SDS011;2540;50.928;6.856;2023-07-20T02:10:05;4.23;;;3.00;;
5042;SDS011;2540;50.928;6.856;2023-07-20T02:12:30;6.63;;;2.73;;
5042;SDS011;2540;50.928;6.856;2023-07-20T02:14:56;6.30;;;2.70;;
5042;SDS011;2540;50.928;6.856;2023-07-20T02:17:21;2.90;;;2.50;;
5042;SDS011;2540;50.928;6.856;2023-07-20T02:19:49;3.23;;;2.63;;
5042;SDS011;2540;50.928;6.856;2023-07-20T02:22:15;4.93;;;2.90;;
5042;SDS011;2540;50.928;6.856;2023-07-20T02:24:41;5.80;;;3.10;;
5042;SDS011;2540;50.928;6.856;2023-07-20T02:27:07;5.40;;;2.63;;
5042;SDS011;2540;50.928;6.856;2023-07-20T02:29:32;3.63;;;2.57;;
5042;SDS011;2540;50.928;6.856;2023-07-20T02:31:57;4.07;;;2.40;;
5042;SDS011;2540;50.928;6.856;2023-07-20T02:34:23;3.90;;;2.90;;
5042;SDS011;2540;50.928;6.856;2023-07-20T02:36:48;5.60;;;2.90;;
5042;SDS011;2540;50.928;6.856;2023-07-20T02:39:14;5.73;;;2.83;;
5042;SDS011;2540;50.928;6.856;2023-07-20T02:41:39;7.07;;;3.30;;
5042;SDS011;2540;50.928;6.856;2023-07-20T02:44:04;3.37;;;2.60;;
5042;SDS011;2540;50.928;6.856;2023-07-20T02:46:30;3.83;;;2.60;;
5042;SDS011;2540;50.928;6.856;2023-07-20T02:48:55;5.03;;;3.07;;
5042;SDS011;2540;50.928;6.856;2023-07-20T02:51:21;3.20;;;2.67;;
5042;SDS011;2540;50.928;6.856;2023-07-20T02:53:46;3.00;;;2.73;;
5042;SDS011;2540;50.928;6.856;2023-07-20T02:56:11;6.50;;;2.90;;
5042;SDS011;2540;50.928;6.856;2023-07-20T02:58:39;5.00;;;2.63;;
5042;SDS011;2540;50.928;6.856;2023-07-20T03:01:08;5.30;;;2.60;;
5042;SDS011;2540;50.928;6.856;2023-07-20T03:03:34;5.77;;;3.33;;
5042;SDS011;2540;50.928;6.856;2023-07-20T03:06:03;6.43;;;3.10;;
5042;SDS011;2540;50.928;6.856;2023-07-20T03:08:29;4.33;;;2.77;;
5042;SDS011;2540;50.928;6.856;2023-07-20T03:10:55;8.27;;;2.83;;
5042;SDS011;2540;50.928;6.856;2023-07-20T03:13:20;7.30;;;2.90;;
5042;SDS011;2540;50.928;6.856;2023-07-20T03:15:45;8.33;;;2.57;;
5042;SDS011;2540;50.928;6.856;2023-07-20T03:18:11;3.80;;;3.07;;
5042;SDS011;2540;50.928;6.856;2023-07-20T03:20:36;9.93;;;2.80;;
5042;SDS011;2540;50.928;6.856;2023-07-20T03:23:02;5.87;;;3.00;;
5042;SDS011;2540;50.928;6.856;2023-07-20T03:25:27;5.50;;;3.43;;
5042;SDS011;2540;50.928;6.856;2023-07-20T03:27:52;2.93;;;2.20;;
5042;SDS011;2540;50.928;6.856;2023-07-20T03:30:18;4.40;;;2.40;;
5042;SDS011;2540;50.928;6.856;2023-07-20T03:32:43;4.43;;;2.60;;
5042;SDS011;2540;50.928;6.856;2023-07-20T03:35:08;5.83;;;2.57;;
5042;SDS011;2540;50.928;6.856;2023-07-20T03:37:34;4.53;;;2.80;;
5042;SDS011;2540;50.928;6.856;2023-07-20T03:40:01;4.30;;;2.30;;
5042;SDS011;2540;50.928;6.856;2023-07-20T03:42:27;8.37;;;3.70;;
5042;SDS011;2540;50.928;6.856;2023-07-20T03:44:53;10.40;;;2.80;;
5042;SDS011;2540;50.928;6.856;2023-07-20T03:47:18;8.30;;;3.43;;
5042;SDS011;2540;50.928;6.856;2023-07-20T03:49:43;5.40;;;2.83;;
5042;SDS011;2540;50.928;6.856;2023-07-20T03:52:09;8.00;;;2.70;;
5042;SDS011;2540;50.928;6.856;2023-07-20T03:54:34;10.27;;;2.30;;
5042;SDS011;2540;50.928;6.856;2023-07-20T03:56:59;3.97;;;2.60;;
5042;SDS011;2540;50.928;6.856;2023-07-20T03:59:25;4.07;;;2.87;;
5042;SDS011;2540;50.928;6.856;2023-07-20T04:01:51;3.27;;;2.13;;
5042;SDS011;2540;50.928;6.856;2023-07-20T04:04:16;3.87;;;2.23;;
5042;SDS011;2540;50.928;6.856;2023-07-20T04:06:42;2.20;;;2.00;;
5042;SDS011;2540;50.928;6.856;2023-07-20T04:09:09;3.33;;;2.70;;
5042;SDS011;2540;50.928;6.856;2023-07-20T04:11:35;2.63;;;2.40;;
5042;SDS011;2540;50.928;6.856;2023-07-20T04:14:00;7.37;;;2.30;;
5042;SDS011;2540;50.928;6.856;2023-07-20T04:16:25;3.30;;;1.90;;
5042;SDS011;2540;50.928;6.856;2023-07-20T04:18:52;3.60;;;2.40;;
5042;SDS011;2540;50.928;6.856;2023-07-20T04:21:17;6.70;;;2.50;;
5042;SDS011;2540;50.928;6.856;2023-07-20T04:23:42;5.87;;;2.73;;
5042;SDS011;2540;50.928;6.856;2023-07-20T04:26:07;5.40;;;2.87;;
5042;SDS011;2540;50.928;6.856;2023-07-20T04:28:33;6.07;;;2.90;;
5042;SDS011;2540;50.928;6.856;2023-07-20T04:31:14;5.87;;;3.03;;
5042;SDS011;2540;50.928;6.856;2023-07-20T04:33:40;3.57;;;2.10;;
5042;SDS011;2540;50.928;6.856;2023-07-20T04:36:05;6.13;;;2.60;;
5042;SDS011;2540;50.928;6.856;2023-07-20T04:38:31;3.40;;;2.43;;
5042;SDS011;2540;50.928;6.856;2023-07-20T04:40:56;11.63;;;2.90;;
5042;SDS011;2540;50.928;6.856;2023-07-20T04:43:22;5.23;;;2.17;;
5042;SDS011;2540;50.928;6.856;2023-07-20T04:45:47;3.73;;;2.37;;
5042;SDS011;2540;50.928;6.856;2023-07-20T04:48:14;6.97;;;3.00;;
5042;SDS011;2540;50.928;6.856;2023-07-20T04:50:41;5.23;;;2.97;;
5042;SDS011;2540;50.928;6.856;2023-07-20T04:53:06;6.17;;;3.43;;
5042;SDS011;2540;50.928;6.856;2023-07-20T04:55:32;8.10;;;3.17;;
5042;SDS011;2540;50.928;6.856;2023-07-20T04:58:01;6.50;;;3.67;;
5042;SDS011;2540;50.928;6.856;2023-07-20T05:00:28;6.63;;;3.10;;
5042;SDS011;2540;50.928;6.856;2023-07-20T05:02:54;12.00;;;3.80;;
5042;SDS011;2540;50.928;6.856;2023-07-20T05:05:19;10.93;;;3.70;;
5042;SDS011;2540;50.928;6.856;2023-07-20T05:07:44;7.20;;;3.13;;
5042;SDS011;2540;50.928;6.856;2023-07-20T05:10:10;6.70;;;3.30;;
5042;SDS011;2540;50.928;6.856;2023-07-20T05:12:36;5.37;;;3.30;;
5042;SDS011;2540;50.928;6.856;2023-07-20T05:15:01;18.63;;;3.50;;
5042;SDS011;2540;50.928;6.856;2023-07-20T05:17:27;7.30;;;3.57;;
5042;SDS011;2540;50.928;6.856;2023-07-20T05:19:52;7.67;;;3.23;;
5042;SDS011;2540;50.928;6.856;2023-07-20T05:22:17;5.07;;;3.43;;
5042;SDS011;2540;50.928;6.856;2023-07-20T05:24:43;4.77;;;2.90;;
5042;SDS011;2540;50.928;6.856;2023-07-20T05:27:08;12.83;;;3.97;;
5042;SDS011;2540;50.928;6.856;2023-07-20T05:29:33;7.50;;;2.97;;
5042;SDS011;2540;50.928;6.856;2023-07-20T05:31:59;7.87;;;3.93;;
5042;SDS011;2540;50.928;6.856;2023-07-20T05:34:24;5.87;;;3.60;;
5042;SDS011;2540;50.928;6.856;2023-07-20T05:36:49;4.77;;;2.90;;
5042;SDS011;2540;50.928;6.856;2023-07-20T05:39:16;4.90;;;3.50;;
5042;SDS011;2540;50.928;6.856;2023-07-20T05:41:42;6.90;;;3.80;;
5042;SDS011;2540;50.928;6.856;2023-07-20T05:44:07;9.33;;;4.03;;
5042;SDS011;2540;50.928;6.856;2023-07-20T05:46:32;6.30;;;4.07;;
5042;SDS011;2540;50.928;6.856;2023-07-20T05:48:58;8.10;;;4.70;;
5042;SDS011;2540;50.928;6.856;2023-07-20T05:51:23;13.10;;;5.10;;
5042;SDS011;2540;50.928;6.856;2023-07-20T05:53:48;6.87;;;4.70;;
5042;SDS011;2540;50.928;6.856;2023-07-20T05:56:14;9.70;;;5.63;;
5042;SDS011;2540;50.928;6.856;2023-07-20T05:58:39;9.20;;;5.83;;
5042;SDS011;2540;50.928;6.856;2023-07-20T06:01:04;7.63;;;4.80;;
5042;SDS011;2540;50.928;6.856;2023-07-20T06:03:33;9.33;;;5.23;;
5042;SDS011;2540;50.928;6.856;2023-07-20T06:06:02;11.30;;;5.37;;
5042;SDS011;2540;50.928;6.856;2023-07-20T06:08:29;6.80;;;5.00;;
5042;SDS011;2540;50.928;6.856;2023-07-20T06:10:55;6.97;;;3.90;;
5042;SDS011;2540;50.928;6.856;2023-07-20T06:13:21;8.27;;;5.20;;
5042;SDS011;2540;50.928;6.856;2023-07-20T06:15:46;12.23;;;5.70;;
5042;SDS011;2540;50.928;6.856;2023-07-20T06:18:12;9.20;;;6.27;;
5042;SDS011;2540;50.928;6.856;2023-07-20T06:20:38;15.10;;;5.50;;
5042;SDS011;2540;50.928;6.856;2023-07-20T06:23:03;10.10;;;5.53;;
5042;SDS011;2540;50.928;6.856;2023-07-20T06:25:29;9.30;;;5.67;;
5042;SDS011;2540;50.928;6.856;2023-07-20T06:27:55;12.33;;;6.30;;
5042;SDS011;2540;50.928;6.856;2023-07-20T06:30:21;12.70;;;6.73;;
5042;SDS011;2540;50.928;6.856;2023-07-20T06:32:46;9.37;;;5.40;;
5042;SDS011;2540;50.928;6.856;2023-07-20T06:35:12;11.23;;;7.37;;
5042;SDS011;2540;50.928;6.856;2023-07-20T06:37:37;10.53;;;6.23;;
5042;SDS011;2540;50.928;6.856;2023-07-20T06:40:03;10.10;;;5.43;;
5042;SDS011;2540;50.928;6.856;2023-07-20T06:42:29;13.07;;;6.63;;
5042;SDS011;2540;50.928;6.856;2023-07-20T06:44:56;11.83;;;7.40;;
5042;SDS011;2540;50.928;6.856;2023-07-20T06:47:21;9.83;;;6.40;;
5042;SDS011;2540;50.928;6.856;2023-07-20T06:49:47;17.57;;;7.17;;
5042;SDS011;2540;50.928;6.856;2023-07-20T06:52:12;9.50;;;6.00;;
5042;SDS011;2540;50.928;6.856;2023-07-20T06:54:37;12.60;;;5.83;;
5042;SDS011;2540;50.928;6.856;2023-07-20T06:57:03;11.93;;;5.37;;
5042;SDS011;2540;50.928;6.856;2023-07-20T06:59:29;21.53;;;5.43;;
5042;SDS011;2540;50.928;6.856;2023-07-20T07:01:55;8.73;;;5.60;;
5042;SDS011;2540;50.928;6.856;2023-07-20T07:04:20;9.60;;;5.40;;
5042;SDS011;2540;50.928;6.856;2023-07-20T07:06:46;10.30;;;5.63;;
5042;SDS011;2540;50.928;6.856;2023-07-20T07:09:11;7.30;;;5.27;;
5042;SDS011;2540;50.928;6.856;2023-07-20T07:11:37;9.83;;;5.57;;
5042;SDS011;2540;50.928;6.856;2023-07-20T07:14:02;9.80;;;5.93;;
5042;SDS011;2540;50.928;6.856;2023-07-20T07:16:28;8.50;;;5.57;;
5042;SDS011;2540;50.928;6.856;2023-07-20T07:18:53;7.13;;;5.37;;
5042;SDS011;2540;50.928;6.856;2023-07-20T07:21:18;9.97;;;5.83;;
5042;SDS011;2540;50.928;6.856;2023-07-20T07:23:44;10.00;;;5.10;;
5042;SDS011;2540;50.928;6.856;2023-07-20T07:26:10;9.07;;;5.27;;
5042;SDS011;2540;50.928;6.856;2023-07-20T07:28:36;8.30;;;4.57;;
5042;SDS011;2540;50.928;6.856;2023-07-20T07:31:04;5.17;;;4.10;;
5042;SDS011;2540;50.928;6.856;2023-07-20T07:33:29;12.03;;;5.40;;
5042;SDS011;2540;50.928;6.856;2023-07-20T07:35:55;11.30;;;6.00;;
5042;SDS011;2540;50.928;6.856;2023-07-20T07:38:20;10.20;;;5.10;;
5042;SDS011;2540;50.928;6.856;2023-07-20T07:40:45;15.63;;;5.83;;
5042;SDS011;2540;50.928;6.856;2023-07-20T07:43:11;9.50;;;5.10;;
5042;SDS011;2540;50.928;6.856;2023-07-20T07:45:38;9.77;;;5.00;;
5042;SDS011;2540;50.928;6.856;2023-07-20T07:48:04;7.20;;;4.67;;
5042;SDS011;2540;50.928;6.856;2023-07-20T07:50:30;12.00;;;4.33;;
5042;SDS011;2540;50.928;6.856;2023-07-20T07:52:55;4.97;;;3.97;;
5042;SDS011;2540;50.928;6.856;2023-07-20T07:55:21;5.00;;;3.90;;
5042;SDS011;2540;50.928;6.856;2023-07-20T07:57:46;4.80;;;3.87;;
5042;SDS011;2540;50.928;6.856;2023-07-20T08:00:12;7.97;;;4.63;;
5042;SDS011;2540;50.928;6.856;2023-07-20T08:02:40;8.40;;;3.83;;
5042;SDS011;2540;50.928;6.856;2023-07-20T08:05:06;7.00;;;4.93;;
5042;SDS011;2540;50.928;6.856;2023-07-20T08:07:32;8.60;;;4.80;;
5042;SDS011;2540;50.928;6.856;2023-07-20T08:09:57;7.00;;;4.20;;
5042;SDS011;2540;50.928;6.856;2023-07-20T08:12:22;5.93;;;3.90;;
5042;SDS011;2540;50.928;6.856;2023-07-20T08:14:48;6.00;;;3.43;;
5042;SDS011;2540;50.928;6.856;2023-07-20T08:17:13;10.63;;;4.33;;
5042;SDS011;2540;50.928;6.856;2023-07-20T08:19:39;7.80;;;4.97;;
5042;SDS011;2540;50.928;6.856;2023-07-20T08:22:06;5.00;;;3.80;;
5042;SDS011;2540;50.928;6.856;2023-07-20T08:24:32;14.33;;;4.00;;
5042;SDS011;2540;50.928;6.856;2023-07-20T08:26:58;6.33;;;3.30;;
5042;SDS011;2540;50.928;6.856;2023-07-20T08:29:24;3.50;;;3.13;;
5042;SDS011;2540;50.928;6.856;2023-07-20T08:31:49;7.10;;;3.57;;
5042;SDS011;2540;50.928;6.856;2023-07-20T08:34:14;6.53;;;3.20;;
5042;SDS011;2540;50.928;6.856;2023-07-20T08:36:40;5.80;;;3.70;;
5042;SDS011;2540;50.928;6.856;2023-07-20T08:39:05;4.67;;;3.03;;
5042;SDS011;2540;50.928;6.856;2023-07-20T08:41:30;3.47;;;2.60;;
5042;SDS011;2540;50.928;6.856;2023-07-20T08:43:56;2.60;;;1.97;;
5042;SDS011;2540;50.928;6.856;2023-07-20T08:46:22;3.87;;;2.63;;
5042;SDS011;2540;50.928;6.856;2023-07-20T08:48:48;3.70;;;3.03;;
5042;SDS011;2540;50.928;6.856;2023-07-20T08:51:14;5.20;;;3.07;;
5042;SDS011;2540;50.928;6.856;2023-07-20T08:53:40;4.17;;;2.97;;
5042;SDS011;2540;50.928;6.856;2023-07-20T08:56:06;4.77;;;3.03;;
5042;SDS011;2540;50.928;6.856;2023-07-20T08:58:31;8.37;;;2.80;;
5042;SDS011;2540;50.928;6.856;2023-07-20T09:00:58;4.30;;;3.00;;
5042;SDS011;2540;50.928;6.856;2023-07-20T09:03:25;3.93;;;3.23;;
5042;SDS011;2540;50.928;6.856;2023-07-20T09:05:51;4.87;;;3.10;;
5042;SDS011;2540;50.928;6.856;2023-07-20T09:08:17;3.90;;;2.97;;
5042;SDS011;2540;50.928;6.856;2023-07-20T09:10:42;5.20;;;2.93;;
5042;SDS011;2540;50.928;6.856;2023-07-20T09:13:07;7.50;;;3.10;;
5042;SDS011;2540;50.928;6.856;2023-07-20T09:15:33;9.17;;;3.17;;
5042;SDS011;2540;50.928;6.856;2023-07-20T09:18:00;5.10;;;2.40;;
5042;SDS011;2540;50.928;6.856;2023-07-20T09:20:26;3.60;;;2.70;;
5042;SDS011;2540;50.928;6.856;2023-07-20T09:22:51;4.17;;;2.57;;
5042;SDS011;2540;50.928;6.856;2023-07-20T09:25:20;5.87;;;2.43;;
5042;SDS011;2540;50.928;6.856;2023-07-20T09:27:46;5.00;;;2.60;;
5042;SDS011;2540;50.928;6.856;2023-07-20T09:30:13;3.03;;;2.10;;
5042;SDS011;2540;50.928;6.856;2023-07-20T09:32:40;10.07;;;2.30;;
5042;SDS011;2540;50.928;6.856;2023-07-20T09:35:12;2.80;;;2.10;;
5042;SDS011;2540;50.928;6.856;2023-07-20T09:37:39;3.03;;;2.00;;
5042;SDS011;2540;50.928;6.856;2023-07-20T09:40:06;3.10;;;2.40;;
5042;SDS011;2540;50.928;6.856;2023-07-20T09:42:32;1.90;;;1.60;;
5042;SDS011;2540;50.928;6.856;2023-07-20T09:44:57;4.57;;;1.60;;
5042;SDS011;2540;50.928;6.856;2023-07-20T09:47:23;1.83;;;1.50;;
5042;SDS011;2540;50.928;6.856;2023-07-20T09:49:48;4.53;;;1.67;;
5042;SDS011;2540;50.928;6.856;2023-07-20T09:52:14;2.63;;;1.87;;
5042;SDS011;2540;50.928;6.856;2023-07-20T09:54:40;2.77;;;1.77;;
5042;SDS011;2540;50.928;6.856;2023-07-20T09:57:08;2.93;;;2.00;;
5042;SDS011;2540;50.928;6.856;2023-07-20T09:59:34;2.47;;;1.90;;
5042;SDS011;2540;50.928;6.856;2023-07-20T10:01:59;3.70;;;2.20;;
5042;SDS011;2540;50.928;6.856;2023-07-20T10:04:26;6.20;;;1.90;;
5042;SDS011;2540;50.928;6.856;2023-07-20T10:06:54;2.60;;;1.83;;
5042;SDS011;2540;50.928;6.856;2023-07-20T10:09:20;3.43;;;1.40;;
5042;SDS011;2540;50.928;6.856;2023-07-20T10:11:49;3.93;;;1.90;;
5042;SDS011;2540;50.928;6.856;2023-07-20T10:14:16;2.63;;;1.70;;
5042;SDS011;2540;50.928;6.856;2023-07-20T10:16:51;2.00;;;1.80;;
5042;SDS011;2540;50.928;6.856;2023-07-20T10:19:24;6.23;;;1.80;;
5042;SDS011;2540;50.928;6.856;2023-07-20T10:22:07;7.90;;;1.83;;
5042;SDS011;2540;50.928;6.856;2023-07-20T10:24:36;2.67;;;1.57;;
5042;SDS011;2540;50.928;6.856;2023-07-20T10:27:02;2.97;;;1.50;;
5042;SDS011;2540;50.928;6.856;2023-07-20T10:29:27;4.20;;;1.70;;
5042;SDS011;2540;50.928;6.856;2023-07-20T10:31:54;3.33;;;1.90;;
5042;SDS011;2540;50.928;6.856;2023-07-20T10:34:20;6.63;;;1.53;;
5042;SDS011;2540;50.928;6.856;2023-07-20T10:36:46;3.73;;;1.77;;
5042;SDS011;2540;50.928;6.856;2023-07-20T10:39:27;2.43;;;1.70;;
5042;SDS011;2540;50.928;6.856;2023-07-20T10:41:59;1.73;;;1.60;;
5042;SDS011;2540;50.928;6.856;2023-07-20T10:44:36;2.23;;;1.70;;
5042;SDS011;2540;50.928;6.856;2023-07-20T10:47:03;3.50;;;1.60;;
5042;SDS011;2540;50.928;6.856;2023-07-20T10:49:33;3.13;;;2.10;;
5042;SDS011;2540;50.928;6.856;2023-07-20T10:51:59;1.40;;;1.30;;
5042;SDS011;2540;50.928;6.856;2023-07-20T10:56:50;1.87;;;1.67;;
5042;SDS011;2540;50.928;6.856;2023-07-20T10:59:19;1.73;;;1.50;;
5042;SDS011;2540;50.928;6.856;2023-07-20T11:02:02;2.47;;;1.60;;
5042;SDS011;2540;50.928;6.856;2023-07-20T11:04:41;2.50;;;1.50;;
5042;SDS011;2540;50.928;6.856;2023-07-20T11:07:07;2.10;;;1.60;;
5042;SDS011;2540;50.928;6.856;2023-07-20T11:09:33;4.00;;;1.80;;
5042;SDS011;2540;50.928;6.856;2023-07-20T11:12:09;4.60;;;1.60;;
5042;SDS011;2540;50.928;6.856;2023-07-20T11:15:02;2.13;;;1.50;;
5042;SDS011;2540;50.928;6.856;2023-07-20T11:17:30;3.30;;;1.40;;
5042;SDS011;2540;50.928;6.856;2023-07-20T11:19:56;1.80;;;1.30;;
5042;SDS011;2540;50.928;6.856;2023-07-20T11:22:22;1.10;;;1.00;;
5042;SDS011;2540;50.928;6.856;2023-07-20T11:24:48;1.30;;;1.10;;
5042;SDS011;2540;50.928;6.856;2023-07-20T11:27:16;2.40;;;1.30;;
5042;SDS011;2540;50.928;6.856;2023-07-20T11:29:43;1.37;;;1.07;;
5042;SDS011;2540;50.928;6.856;2023-07-20T11:32:10;1.97;;;1.40;;
5042;SDS011;2540;50.928;6.856;2023-07-20T11:34:35;2.50;;;1.20;;
5042;SDS011;2540;50.928;6.856;2023-07-20T11:37:01;1.80;;;1.13;;
5042;SDS011;2540;50.928;6.856;2023-07-20T11:39:27;2.20;;;1.37;;
5042;SDS011;2540;50.928;6.856;2023-07-20T11:41:57;5.57;;;1.57;;
5042;SDS011;2540;50.928;6.856;2023-07-20T11:44:23;1.53;;;1.30;;
5042;SDS011;2540;50.928;6.856;2023-07-20T11:49:30;5.53;;;1.40;;
5042;SDS011;2540;50.928;6.856;2023-07-20T11:51:56;1.83;;;1.27;;
5042;SDS011;2540;50.928;6.856;2023-07-20T11:54:22;4.63;;;1.40;;
5042;SDS011;2540;50.928;6.856;2023-07-20T11:56:48;2.47;;;1.30;;
5042;SDS011;2540;50.928;6.856;2023-07-20T11:59:13;2.23;;;1.30;;
5042;SDS011;2540;50.928;6.856;2023-07-20T12:01:38;1.20;;;1.10;;
5042;SDS011;2540;50.928;6.856;2023-07-20T12:04:04;3.27;;;1.30;;
5042;SDS011;2540;50.928;6.856;2023-07-20T12:06:29;2.33;;;1.20;;
5042;SDS011;2540;50.928;6.856;2023-07-20T12:08:58;8.10;;;1.50;;
5042;SDS011;2540;50.928;6.856;2023-07-20T12:11:35;1.40;;;1.20;;
5042;SDS011;2540;50.928;6.856;2023-07-20T12:14:01;1.40;;;1.07;;
5042;SDS011;2540;50.928;6.856;2023-07-20T12:16:28;3.37;;;1.70;;
5042;SDS011;2540;50.928;6.856;2023-07-20T12:19:04;3.80;;;1.10;;
5042;SDS011;2540;50.928;6.856;2023-07-20T12:21:31;3.13;;;1.23;;
5042;SDS011;2540;50.928;6.856;2023-07-20T12:23:57;1.83;;;1.30;;
5042;SDS011;2540;50.928;6.856;2023-07-20T12:26:23;2.17;;;1.33;;
5042;SDS011;2540;50.928;6.856;2023-07-20T12:28:50;1.83;;;1.37;;
5042;SDS011;2540;50.928;6.856;2023-07-20T12:31:15;1.40;;;1.30;;
5042;SDS011;2540;50.928;6.856;2023-07-20T12:33:41;1.37;;;1.27;;
5042;SDS011;2540;50.928;6.856;2023-07-20T12:36:06;2.70;;;1.63;;
5042;SDS011;2540;50.928;6.856;2023-07-20T12:38:33;4.30;;;1.17;;
5042;SDS011;2540;50.928;6.856;2023-07-20T12:40:59;4.80;;;1.33;;
5042;SDS011;2540;50.928;6.856;2023-07-20T12:43:25;1.67;;;1.30;;
5042;SDS011;2540;50.928;6.856;2023-07-20T12:45:50;1.50;;;1.30;;
5042;SDS011;2540;50.928;6.856;2023-07-20T12:48:16;1.77;;;1.20;;
5042;SDS011;2540;50.928;6.856;2023-07-20T12:50:41;1.30;;;1.20;;
5042;SDS011;2540;50.928;6.856;2023-07-20T12:53:07;1.50;;;1.20;;
5042;SDS011;2540;50.928;6.856;2023-07-20T12:55:32;1.87;;;1.47;;
5042;SDS011;2540;50.928;6.856;2023-07-20T12:57:58;1.10;;;1.00;;
5042;SDS011;2540;50.928;6.856;2023-07-20T13:00:23;1.20;;;1.10;;
5042;SDS011;2540;50.928;6.856;2023-07-20T13:02:49;2.53;;;1.23;;
5042;SDS011;2540;50.928;6.856;2023-07-20T13:05:14;2.63;;;0.93;;
5042;SDS011;2540;50.928;6.856;2023-07-20T13:07:40;2.20;;;1.00;;
5042;SDS011;2540;50.928;6.856;2023-07-20T13:10:06;1.53;;;1.20;;
5042;SDS011;2540;50.928;6.856;2023-07-20T13:12:32;3.00;;;1.60;;
5042;SDS011;2540;50.928;6.856;2023-07-20T13:14:58;2.00;;;1.30;;
5042;SDS011;2540;50.928;6.856;2023-07-20T13:17:27;1.83;;;1.30;;
5042;SDS011;2540;50.928;6.856;2023-07-20T13:19:54;2.73;;;1.10;;
5042;SDS011;2540;50.928;6.856;2023-07-20T13:22:20;2.90;;;1.50;;
5042;SDS011;2540;50.928;6.856;2023-07-20T13:24:46;3.43;;;1.20;;
5042;SDS011;2540;50.928;6.856;2023-07-20T13:27:14;2.60;;;1.10;;
5042;SDS011;2540;50.928;6.856;2023-07-20T13:29:40;3.10;;;1.40;;
5042;SDS011;2540;50.928;6.856;2023-07-20T13:32:05;3.00;;;1.47;;
5042;SDS011;2540;50.928;6.856;2023-07-20T13:34:31;2.20;;;1.40;;
5042;SDS011;2540;50.928;6.856;2023-07-20T13:36:57;1.97;;;1.10;;
5042;SDS011;2540;50.928;6.856;2023-07-20T13:39:22;1.20;;;1.10;;
5042;SDS011;2540;50.928;6.856;2023-07-20T13:41:49;1.30;;;1.10;;
5042;SDS011;2540;50.928;6.856;2023-07-20T13:44:14;4.03;;;1.63;;
5042;SDS011;2540;50.928;6.856;2023-07-20T13:46:40;1.40;;;1.20;;
5042;SDS011;2540;50.928;6.856;2023-07-20T13:49:05;1.47;;;1.17;;
5042;SDS011;2540;50.928;6.856;2023-07-20T13:51:30;2.57;;;1.27;;
5042;SDS011;2540;50.928;6.856;2023-07-20T13:53:56;5.10;;;2.00;;
5042;SDS011;2540;50.928;6.856;2023-07-20T13:56:22;1.33;;;1.10;;
5042;SDS011;2540;50.928;6.856;2023-07-20T13:58:48;2.03;;;1.10;;
5042;SDS011;2540;50.928;6.856;2023-07-20T14:01:13;5.33;;;1.27;;
5042;SDS011;2540;50.928;6.856;2023-07-20T14:03:39;1.40;;;1.20;;
5042;SDS011;2540;50.928;6.856;2023-07-20T14:06:04;1.70;;;1.13;;
5042;SDS011;2540;50.928;6.856;2023-07-20T14:08:29;1.77;;;1.17;;
5042;SDS011;2540;50.928;6.856;2023-07-20T14:10:55;2.67;;;1.40;;
5042;SDS011;2540;50.928;6.856;2023-07-20T14:13:20;1.80;;;1.17;;
5042;SDS011;2540;50.928;6.856;2023-07-20T14:15:45;8.10;;;1.10;;
5042;SDS011;2540;50.928;6.856;2023-07-20T14:18:11;1.87;;;1.40;;
5042;SDS011;2540;50.928;6.856;2023-07-20T14:20:36;1.70;;;1.23;;
5042;SDS011;2540;50.928;6.856;2023-07-20T14:23:01;1.77;;;1.23;;
5042;SDS011;2540;50.928;6.856;2023-07-20T14:25:27;1.13;;;1.03;;
5042;SDS011;2540;50.928;6.856;2023-07-20T14:27:52;1.73;;;1.17;;
5042;SDS011;2540;50.928;6.856;2023-07-20T14:30:17;1.97;;;1.20;;
5042;SDS011;2540;50.928;6.856;2023-07-20T14:32:43;1.97;;;1.23;;
5042;SDS011;2540;50.928;6.856;2023-07-20T14:35:08;1.97;;;1.10;;
5042;SDS011;2540;50.928;6.856;2023-07-20T14:37:34;1.00;;;0.90;;
5042;SDS011;2540;50.928;6.856;2023-07-20T14:39:59;1.00;;;0.90;;
5042;SDS011;2540;50.928;6.856;2023-07-20T14:42:24;2.57;;;1.40;;
5042;SDS011;2540;50.928;6.856;2023-07-20T14:44:50;1.87;;;1.30;;
5042;SDS011;2540;50.928;6.856;2023-07-20T14:47:16;1.67;;;1.57;;
5042;SDS011;2540;50.928;6.856;2023-07-20T14:49:41;3.00;;;1.10;;
5042;SDS011;2540;50.928;6.856;2023-07-20T14:52:06;1.10;;;1.00;;
5042;SDS011;2540;50.928;6.856;2023-07-20T14:54:32;1.20;;;1.03;;
5042;SDS011;2540;50.928;6.856;2023-07-20T14:56:57;2.37;;;1.47;;
5042;SDS011;2540;50.928;6.856;2023-07-20T14:59:22;2.80;;;1.37;;
5042;SDS011;2540;50.928;6.856;2023-07-20T15:01:48;1.80;;;1.30;;
5042;SDS011;2540;50.928;6.856;2023-07-20T15:04:14;2.83;;;1.47;;
5042;SDS011;2540;50.928;6.856;2023-07-20T15:06:40;4.40;;;1.33;;
5042;SDS011;2540;50.928;6.856;2023-07-20T15:09:05;1.57;;;1.40;;
5042;SDS011;2540;50.928;6.856;2023-07-20T15:11:31;2.73;;;1.40;;
5042;SDS011;2540;50.928;6.856;2023-07-20T15:13:56;1.80;;;1.30;;
5042;SDS011;2540;50.928;6.856;2023-07-20T15:16:23;1.77;;;1.10;;
5042;SDS011;2540;50.928;6.856;2023-07-20T15:18:48;3.43;;;1.23;;
5042;SDS011;2540;50.928;6.856;2023-07-20T15:21:14;1.33;;;1.00;;
5042;SDS011;2540;50.928;6.856;2023-07-20T15:23:40;1.57;;;1.30;;
5042;SDS011;2540;50.928;6.856;2023-07-20T15:26:05;1.27;;;1.10;;
5042;SDS011;2540;50.928;6.856;2023-07-20T15:28:31;1.30;;;1.00;;
5042;SDS011;2540;50.928;6.856;2023-07-20T15:31:00;1.33;;;1.20;;